createdAt,value
2022-12-26T02:31:40.609Z,26.84
2022-12-26T02:32:40.527Z,26.85
2022-12-26T02:33:40.505Z,26.84
2022-12-26T02:34:40.431Z,26.90
2022-12-26T02:35:40.371Z,26.85
2022-12-26T02:36:40.337Z,26.87
2022-12-26T02:37:40.332Z,26.85
2022-12-26T02:38:40.227Z,26.88
2022-12-26T02:39:43.253Z,26.87
2022-12-26T02:47:40.737Z,26.85
2022-12-26T03:00:40.726Z,26.79
2022-12-26T04:19:35.003Z,26.77
2022-12-26T04:21:34.901Z,26.74
2022-12-26T04:22:34.856Z,26.75
2022-12-26T04:23:34.785Z,26.74
2022-12-26T04:25:48.504Z,26.77
2022-12-26T04:28:34.543Z,26.76
2022-12-26T04:30:34.431Z,26.79
2022-12-26T04:32:34.300Z,26.80
2022-12-26T04:33:34.259Z,26.74
2022-12-26T04:35:34.139Z,26.80
2022-12-26T04:37:34.034Z,26.76
2022-12-26T04:38:33.971Z,26.80
2022-12-26T05:32:31.061Z,26.69
2022-12-26T05:40:30.626Z,26.69
2022-12-26T07:58:23.259Z,26.55
2022-12-26T08:16:22.291Z,26.51
2022-12-26T08:17:22.230Z,26.50
2022-12-26T08:18:22.096Z,26.51
2022-12-26T08:19:22.043Z,26.51
2022-12-26T08:20:21.964Z,26.51
2022-12-26T08:21:21.932Z,26.44
2022-12-26T08:22:21.859Z,26.51
2022-12-26T08:23:21.805Z,26.47
2022-12-26T08:24:21.749Z,26.50
2022-12-26T08:25:22.018Z,26.50
2022-12-26T08:26:21.661Z,26.51
2022-12-26T08:27:21.565Z,26.50
2022-12-26T08:28:21.523Z,26.51
2022-12-26T08:29:21.467Z,26.54
2022-12-26T08:30:21.406Z,26.44
2022-12-26T08:31:21.473Z,26.41
2022-12-26T08:32:21.294Z,26.43
2022-12-26T08:33:21.235Z,26.41
2022-12-26T08:34:21.179Z,26.41
2022-12-26T08:35:21.139Z,26.48
2022-12-26T08:36:21.080Z,26.50
2022-12-26T08:37:21.018Z,26.44
2022-12-26T08:38:20.967Z,26.43
2022-12-26T08:39:20.898Z,26.49
2022-12-26T08:40:39.783Z,26.41
2022-12-26T08:41:21.831Z,26.45
2022-12-26T08:42:20.728Z,26.46
2022-12-26T08:43:34.897Z,26.48
2022-12-26T08:44:29.340Z,26.40
2022-12-26T08:45:21.577Z,26.45
2022-12-26T08:46:20.600Z,26.41
2022-12-26T08:47:20.492Z,26.48
2022-12-26T08:48:20.403Z,26.41
2022-12-26T08:49:20.346Z,26.41
2022-12-26T08:50:20.273Z,26.38
2022-12-26T08:51:20.273Z,26.39
2022-12-26T08:52:20.178Z,26.35
2022-12-26T08:53:20.115Z,26.38
2022-12-26T09:57:16.587Z,25.38
2022-12-26T10:15:15.622Z,25.46
2022-12-26T10:27:14.991Z,25.55
2022-12-26T10:35:14.497Z,25.47
2022-12-26T10:36:14.449Z,25.47
2022-12-26T10:37:14.400Z,25.38
2022-12-26T10:38:14.327Z,25.42
2022-12-26T10:39:14.268Z,25.33
2022-12-26T10:40:14.235Z,25.36
2022-12-26T10:41:14.163Z,25.34
2022-12-26T10:42:14.115Z,25.29
2022-12-26T10:43:14.063Z,25.31
2022-12-26T10:44:13.994Z,25.34
2022-12-26T10:45:13.949Z,25.31
2022-12-26T10:46:13.946Z,25.34
2022-12-26T10:47:13.820Z,25.36
2022-12-26T10:48:13.787Z,25.34
2022-12-26T10:49:13.741Z,25.25
2022-12-26T10:50:13.670Z,25.18
2022-12-26T10:51:13.598Z,25.07
2022-12-26T10:52:13.539Z,25.06
2022-12-26T10:53:13.470Z,24.99
2022-12-26T10:54:13.432Z,25.00
2022-12-26T10:55:28.707Z,24.93
2022-12-26T10:57:13.248Z,24.76
2022-12-26T10:58:13.192Z,24.71
2022-12-26T10:59:13.133Z,24.48
2022-12-26T11:00:13.069Z,24.28
2022-12-26T11:01:13.137Z,24.14
2022-12-26T11:02:13.022Z,24.11
2022-12-26T11:03:13.053Z,23.99
2022-12-26T11:04:12.798Z,23.85
2022-12-26T11:05:26.751Z,23.71
2022-12-26T11:06:13.673Z,23.68
2022-12-26T11:07:12.590Z,23.64
2022-12-26T11:08:12.552Z,23.52
2022-12-26T11:09:12.445Z,23.51
2022-12-26T11:10:12.383Z,23.36
2022-12-26T11:11:12.303Z,23.26
2022-12-26T11:12:12.229Z,23.13
2022-12-26T11:13:12.165Z,23.07
2022-12-26T11:14:12.069Z,23.08
2022-12-26T11:15:12.005Z,23.01
2022-12-26T11:16:11.993Z,22.89
2022-12-26T11:17:11.870Z,22.88
2022-12-26T11:18:11.793Z,22.97
2022-12-26T11:19:11.729Z,22.94
2022-12-26T11:20:11.647Z,22.85
2022-12-26T11:21:12.916Z,22.73
2022-12-26T11:22:11.498Z,22.63
2022-12-26T11:23:11.445Z,22.83
2022-12-26T11:24:11.353Z,22.99
2022-12-26T11:25:11.263Z,22.94
2022-12-26T11:26:11.198Z,22.88
2022-12-26T11:27:12.936Z,22.85
2022-12-26T11:28:11.043Z,22.81
2022-12-26T11:29:11.010Z,22.67
2022-12-26T11:30:10.906Z,22.71
2022-12-26T11:31:10.902Z,22.63
2022-12-26T11:32:10.759Z,22.53
2022-12-26T11:33:14.570Z,22.70
2022-12-26T11:34:10.642Z,22.76
2022-12-26T11:35:10.536Z,22.89
2022-12-26T11:36:10.478Z,22.97
2022-12-26T11:37:10.407Z,23.11
2022-12-26T11:38:10.401Z,23.14
2022-12-26T11:39:10.269Z,23.20
2022-12-26T11:40:10.194Z,23.20
2022-12-26T11:41:10.140Z,23.11
2022-12-26T11:42:10.079Z,23.11
2022-12-26T11:43:10.002Z,23.09
2022-12-26T11:44:09.943Z,23.07
2022-12-26T11:45:09.846Z,23.03
2022-12-26T11:46:09.814Z,22.94
2022-12-26T11:47:09.773Z,22.86
2022-12-26T11:48:09.637Z,22.70
2022-12-26T11:49:09.567Z,22.55
2022-12-26T11:50:09.521Z,22.43
2022-12-26T11:51:09.410Z,22.26
2022-12-26T11:52:09.345Z,22.16
2022-12-26T11:53:09.261Z,22.02
2022-12-26T11:54:09.199Z,22.13
2022-12-26T11:55:09.128Z,22.17
2022-12-26T11:56:09.056Z,22.23
2022-12-26T11:57:08.970Z,22.36
2022-12-26T11:58:08.900Z,22.36
2022-12-26T11:59:08.840Z,22.40
2022-12-26T12:00:08.759Z,22.64
2022-12-26T12:01:08.815Z,22.42
2022-12-26T12:02:08.652Z,22.49
2022-12-26T12:03:08.580Z,22.59
2022-12-26T12:04:08.483Z,22.65
2022-12-26T12:05:08.403Z,22.65
2022-12-26T12:06:08.348Z,22.60
2022-12-26T12:07:08.270Z,22.54
2022-12-26T12:08:08.190Z,22.54
2022-12-26T12:09:08.098Z,22.61
2022-12-26T12:10:08.064Z,22.70
2022-12-26T12:11:07.961Z,22.66
2022-12-26T12:12:07.901Z,22.67
2022-12-26T12:13:07.870Z,22.64
2022-12-26T12:14:07.754Z,22.69
2022-12-26T12:15:07.676Z,22.62
2022-12-26T12:16:07.697Z,22.50
2022-12-26T12:17:07.574Z,22.53
2022-12-26T12:18:07.499Z,22.41
2022-12-26T12:19:07.416Z,22.36
2022-12-26T12:20:07.377Z,22.20
2022-12-26T12:21:07.279Z,22.01
2022-12-26T12:22:07.290Z,21.77
2022-12-26T12:23:07.180Z,21.75
2022-12-26T12:24:07.097Z,21.29
2022-12-26T12:25:07.029Z,21.14
2022-12-26T12:26:06.973Z,21.45
2022-12-26T12:27:06.902Z,21.48
2022-12-26T12:28:06.840Z,21.27
2022-12-26T12:29:06.742Z,21.04
2022-12-26T12:30:06.675Z,20.63
2022-12-26T12:31:06.599Z,20.28
2022-12-26T12:32:06.962Z,19.99
2022-12-26T12:33:06.475Z,19.82
2022-12-26T12:34:06.415Z,19.57
2022-12-26T12:35:06.299Z,19.36
2022-12-26T12:36:06.204Z,19.06
2022-12-26T12:37:06.128Z,18.83
2022-12-26T12:38:06.072Z,18.61
2022-12-26T12:39:05.964Z,18.48
2022-12-26T12:40:05.903Z,18.64
2022-12-26T12:41:05.802Z,18.57
2022-12-26T12:42:05.724Z,18.39
2022-12-26T12:43:05.636Z,18.09
2022-12-26T12:44:05.561Z,18.02
2022-12-26T12:45:05.481Z,18.17
2022-12-26T12:46:05.413Z,17.95
2022-12-26T12:47:05.354Z,18.10
2022-12-26T12:48:05.239Z,18.19
2022-12-26T12:49:05.162Z,18.04
2022-12-26T12:50:05.105Z,17.75
2022-12-26T12:51:05.010Z,17.57
2022-12-26T12:52:04.925Z,17.36
2022-12-26T12:53:04.844Z,17.29
2022-12-26T12:54:04.759Z,17.20
2022-12-26T12:55:04.700Z,17.01
2022-12-26T12:56:04.567Z,16.91
2022-12-26T12:57:04.492Z,16.84
2022-12-26T12:58:04.451Z,16.75
2022-12-26T12:59:04.320Z,16.61
2022-12-26T13:00:04.241Z,16.54
2022-12-26T13:01:04.365Z,16.54
2022-12-26T13:02:09.066Z,16.50
2022-12-26T13:03:05.129Z,16.45
2022-12-26T13:04:03.905Z,16.39
2022-12-26T13:05:03.832Z,16.32
2022-12-26T13:06:03.740Z,16.26
2022-12-26T13:07:03.655Z,16.25
2022-12-26T13:08:03.576Z,16.17
2022-12-26T13:09:03.486Z,16.13
2022-12-26T13:10:03.406Z,16.17
2022-12-26T13:11:03.304Z,16.19
2022-12-26T13:12:03.229Z,16.13
2022-12-26T13:13:03.189Z,16.12
2022-12-26T13:14:03.055Z,16.07
2022-12-26T13:15:02.995Z,16.11
2022-12-26T13:16:02.946Z,16.08
2022-12-26T13:17:02.791Z,16.36
2022-12-26T13:18:02.698Z,16.41
2022-12-26T13:19:02.613Z,16.39
2022-12-26T13:20:03.250Z,16.29
2022-12-26T13:21:02.460Z,16.28
2022-12-26T13:22:02.382Z,16.38
2022-12-26T13:23:02.285Z,16.42
2022-12-26T13:24:02.200Z,16.46
2022-12-26T13:25:02.153Z,16.99
2022-12-26T13:26:04.756Z,17.65
2022-12-26T13:27:01.925Z,18.16
2022-12-26T13:28:01.830Z,18.61
2022-12-26T13:29:01.765Z,19.12
2022-12-26T13:30:01.674Z,19.54
2022-12-26T13:31:01.591Z,19.86
2022-12-26T13:32:01.558Z,20.26
2022-12-26T13:33:01.448Z,20.55
2022-12-26T13:34:01.386Z,20.83
2022-12-26T13:35:01.404Z,21.08
2022-12-26T13:36:01.236Z,21.39
2022-12-26T13:37:01.173Z,21.64
2022-12-26T13:38:01.116Z,21.87
2022-12-26T13:39:01.058Z,22.02
2022-12-26T13:40:01.003Z,22.27
2022-12-26T13:41:00.999Z,22.43
2022-12-26T13:42:00.875Z,22.62
2022-12-26T13:43:00.804Z,22.72
2022-12-26T13:44:00.753Z,22.86
2022-12-26T13:45:00.685Z,23.05
2022-12-26T13:46:00.691Z,23.10
2022-12-26T13:47:00.587Z,23.21
2022-12-26T13:48:00.513Z,23.27
2022-12-26T13:49:00.444Z,23.47
2022-12-26T13:50:00.397Z,23.53
2022-12-26T13:51:00.350Z,23.62
2022-12-26T13:52:00.278Z,23.69
2022-12-26T13:53:00.215Z,23.78
2022-12-26T13:54:00.155Z,23.82
2022-12-26T13:55:00.111Z,23.86
2022-12-26T14:09:59.229Z,24.51
2022-12-26T14:10:59.166Z,24.58
2022-12-26T14:11:59.119Z,24.56
2022-12-26T14:13:59.016Z,24.67
2022-12-26T14:14:58.949Z,24.64
2022-12-26T14:15:58.902Z,24.73
2022-12-26T14:16:58.898Z,24.71
2022-12-26T14:17:58.769Z,24.71
2022-12-26T14:18:58.728Z,24.77
2022-12-26T14:19:58.663Z,24.84
2022-12-26T14:20:58.618Z,24.83
2022-12-26T14:21:58.554Z,24.86
2022-12-26T14:22:58.508Z,24.83
2022-12-26T14:23:58.429Z,24.89
2022-12-26T14:24:58.373Z,24.89
2022-12-26T14:25:58.337Z,24.91
2022-12-26T14:26:58.270Z,24.95
2022-12-26T14:27:58.244Z,24.98
2022-12-26T14:28:58.153Z,24.96
2022-12-26T14:29:58.122Z,25.00
2022-12-26T14:30:58.079Z,24.99
2022-12-26T14:31:58.009Z,25.09
2022-12-26T14:33:00.535Z,25.11
2022-12-26T14:33:57.901Z,25.16
2022-12-26T14:34:57.841Z,25.10
2022-12-26T14:35:57.791Z,25.15
2022-12-26T14:36:57.801Z,25.15
2022-12-26T14:37:57.684Z,25.21
2022-12-26T14:38:57.612Z,25.18
2022-12-26T14:39:57.563Z,25.24
2022-12-26T14:40:57.511Z,25.29
2022-12-26T14:41:57.484Z,25.32
2022-12-26T14:42:57.400Z,25.33
2022-12-26T14:43:58.214Z,25.30
2022-12-26T14:44:57.307Z,25.30
2022-12-26T14:45:57.411Z,25.37
2022-12-26T14:46:57.213Z,25.40
2022-12-26T14:47:57.143Z,25.38
2022-12-26T14:48:57.113Z,25.38
2022-12-26T14:49:57.037Z,25.48
2022-12-26T14:50:56.972Z,25.46
2022-12-26T14:51:56.940Z,25.47
2022-12-26T14:52:56.871Z,25.49
2022-12-26T14:53:56.795Z,25.49
2022-12-26T14:54:56.742Z,25.44
2022-12-26T14:55:56.694Z,25.52
2022-12-26T14:56:56.640Z,25.53
2022-12-26T14:57:56.581Z,25.54
2022-12-26T14:58:56.517Z,25.60
2022-12-26T15:00:03.173Z,25.62
2022-12-26T15:00:57.519Z,25.61
2022-12-26T15:01:56.446Z,25.57
2022-12-26T15:02:56.323Z,25.59
2022-12-26T15:03:56.275Z,25.62
2022-12-26T15:04:56.201Z,25.68
2022-12-26T15:05:56.151Z,25.66
2022-12-26T15:06:56.114Z,25.69
2022-12-26T15:07:56.042Z,25.72
2022-12-26T15:08:55.980Z,25.70
2022-12-26T15:09:55.945Z,25.74
2022-12-26T15:10:55.879Z,25.69
2022-12-26T15:11:55.850Z,25.73
2022-12-26T15:12:58.896Z,25.74
2022-12-26T15:13:55.708Z,25.72
2022-12-26T15:14:55.654Z,25.72
2022-12-26T15:15:55.637Z,25.73
2022-12-26T15:16:55.552Z,25.73
2022-12-26T15:17:55.502Z,25.79
2022-12-26T15:18:55.448Z,25.76
2022-12-26T15:19:55.401Z,25.73
2022-12-26T15:20:55.344Z,25.76
2022-12-26T15:21:55.301Z,25.81
2022-12-26T15:22:55.254Z,25.82
2022-12-26T15:23:55.195Z,25.81
2022-12-26T15:25:55.112Z,25.81
2022-12-26T15:26:56.052Z,25.79
2022-12-26T15:27:55.012Z,25.85
2022-12-26T15:28:54.963Z,25.85
2022-12-26T15:29:54.927Z,25.88
2022-12-26T15:30:54.911Z,25.86
2022-12-26T15:31:54.816Z,25.82
2022-12-26T15:32:54.770Z,25.86
2022-12-26T15:33:54.713Z,25.87
2022-12-26T15:34:54.671Z,25.88
2022-12-26T15:35:58.046Z,25.89
2022-12-26T15:36:55.549Z,25.87
2022-12-26T15:37:54.526Z,25.89
2022-12-26T15:38:54.430Z,25.90
2022-12-26T15:39:54.390Z,25.91
2022-12-26T15:40:54.324Z,25.91
2022-12-26T15:41:54.281Z,25.91
2022-12-26T15:42:54.222Z,25.98
2022-12-26T15:43:54.163Z,25.97
2022-12-26T15:44:54.114Z,25.96
2022-12-26T15:45:54.059Z,25.96
2022-12-26T15:46:53.990Z,25.91
2022-12-26T15:47:53.941Z,25.94
2022-12-26T15:48:53.884Z,25.96
2022-12-26T15:49:53.832Z,25.96
2022-12-26T15:50:53.802Z,25.92
2022-12-26T15:52:01.562Z,25.98
2022-12-26T15:52:53.674Z,26.03
2022-12-26T15:53:53.629Z,25.96
2022-12-26T15:54:53.742Z,25.92
2022-12-26T15:55:53.518Z,25.98
2022-12-26T15:56:53.480Z,25.96
2022-12-26T15:57:53.395Z,26.00
2022-12-26T15:58:53.345Z,25.92
2022-12-26T15:59:53.271Z,25.96
2022-12-26T16:00:53.224Z,25.98
2022-12-26T16:01:53.446Z,25.94
2022-12-26T16:02:53.229Z,25.99
2022-12-26T16:03:53.063Z,25.98
2022-12-26T16:04:53.027Z,26.01
2022-12-26T16:05:52.965Z,25.98
2022-12-26T16:06:52.943Z,25.97
2022-12-26T16:07:52.876Z,26.02
2022-12-26T16:08:52.795Z,26.01
2022-12-26T16:09:52.740Z,25.99
2022-12-26T16:10:55.811Z,26.01
2022-12-26T16:11:52.632Z,26.01
2022-12-26T16:12:52.625Z,26.03
2022-12-26T16:13:52.521Z,25.99
2022-12-26T16:14:52.479Z,25.98
2022-12-26T16:15:52.446Z,26.03
2022-12-26T16:16:52.374Z,26.03
2022-12-26T16:17:52.305Z,25.99
2022-12-26T16:18:52.238Z,26.03
2022-12-26T16:19:52.185Z,26.05
2022-12-26T16:20:52.138Z,26.03
2022-12-26T16:21:52.090Z,26.05
2022-12-26T16:22:52.059Z,26.08
2022-12-26T16:23:51.964Z,26.03
2022-12-26T16:24:51.905Z,26.03
2022-12-26T16:25:51.857Z,25.99
2022-12-26T16:26:51.859Z,26.10
2022-12-26T16:27:51.764Z,26.02
2022-12-26T16:28:51.690Z,26.00
2022-12-26T16:29:51.640Z,26.06
2022-12-26T16:30:51.633Z,26.02
2022-12-26T16:31:51.569Z,26.07
2022-12-26T16:32:51.482Z,26.03
2022-12-26T16:33:51.416Z,26.05
2022-12-26T16:34:51.389Z,26.02
2022-12-26T16:35:54.863Z,26.05
2022-12-26T16:36:52.235Z,26.02
2022-12-26T16:37:51.189Z,26.06
2022-12-26T16:38:51.132Z,26.09
2022-12-26T16:39:51.072Z,26.01
2022-12-26T16:40:51.024Z,25.99
2022-12-26T16:41:50.953Z,26.05
2022-12-26T16:42:50.923Z,26.03
2022-12-26T16:43:50.868Z,26.03
2022-12-26T16:44:50.837Z,26.04
2022-12-26T16:45:50.758Z,26.00
2022-12-26T16:46:50.921Z,26.04
2022-12-26T16:47:50.639Z,26.04
2022-12-26T16:48:50.576Z,26.05
2022-12-26T16:49:50.530Z,26.06
2022-12-26T16:50:50.489Z,26.04
2022-12-26T16:51:50.417Z,26.07
2022-12-26T16:52:50.364Z,26.08
2022-12-26T16:53:50.315Z,26.10
2022-12-26T16:54:50.242Z,26.07
2022-12-26T16:55:50.212Z,26.10
2022-12-26T16:56:50.170Z,26.11
2022-12-26T16:57:50.133Z,26.08
2022-12-26T16:58:50.037Z,26.04
2022-12-26T16:59:51.585Z,26.08
2022-12-26T17:00:49.912Z,26.08
2022-12-26T17:01:49.895Z,26.13
2022-12-26T17:02:49.875Z,26.07
2022-12-26T17:03:49.721Z,26.10
2022-12-26T17:04:52.172Z,26.10
2022-12-26T17:05:50.623Z,26.13
2022-12-26T17:06:49.579Z,26.04
2022-12-26T17:07:49.512Z,26.11
2022-12-26T17:08:49.470Z,26.10
2022-12-26T17:09:49.419Z,26.06
2022-12-26T17:10:49.339Z,26.08
2022-12-26T17:11:49.283Z,26.13
2022-12-26T17:12:49.246Z,26.11
2022-12-26T17:13:49.177Z,26.07
2022-12-26T17:14:49.147Z,26.06
2022-12-26T17:15:49.062Z,26.06
2022-12-26T17:16:49.021Z,26.07
2022-12-26T17:17:48.959Z,26.05
2022-12-26T17:18:48.910Z,26.11
2022-12-26T17:19:53.751Z,26.09
2022-12-26T17:20:49.802Z,26.08
2022-12-26T17:21:48.766Z,26.08
2022-12-26T17:22:48.712Z,26.07
2022-12-26T17:23:48.651Z,26.15
2022-12-26T17:24:48.601Z,26.11
2022-12-26T17:25:50.867Z,26.11
2022-12-26T17:26:48.559Z,26.06
2022-12-26T17:27:48.526Z,26.07
2022-12-26T17:28:48.457Z,26.08
2022-12-26T17:29:48.402Z,26.14
2022-12-26T17:30:48.360Z,26.14
2022-12-26T17:31:48.309Z,26.07
2022-12-26T17:32:48.285Z,26.12
2022-12-26T17:33:48.408Z,26.09
2022-12-26T17:34:49.118Z,26.08
2022-12-26T17:36:44.755Z,26.11
2022-12-26T17:37:48.998Z,26.11
2022-12-26T17:38:47.968Z,26.12
2022-12-26T17:39:47.897Z,26.07
2022-12-26T17:40:47.857Z,26.05
2022-12-26T17:41:47.786Z,26.14
2022-12-26T17:42:47.735Z,26.11
2022-12-26T17:43:47.692Z,26.08
2022-12-26T17:44:47.636Z,26.09
2022-12-26T17:45:47.598Z,26.09
2022-12-26T17:46:47.604Z,26.09
2022-12-26T17:47:47.541Z,26.13
2022-12-26T17:48:47.420Z,26.12
2022-12-26T17:49:47.372Z,26.09
2022-12-26T17:50:47.334Z,26.09
2022-12-26T17:51:53.614Z,26.15
2022-12-26T17:52:48.225Z,26.15
2022-12-26T17:53:47.172Z,26.13
2022-12-26T17:54:47.128Z,26.11
2022-12-26T17:55:47.094Z,26.11
2022-12-26T17:56:47.015Z,26.05
2022-12-26T17:57:46.937Z,26.12
2022-12-26T17:58:46.902Z,26.14
2022-12-26T17:59:46.840Z,26.08
2022-12-26T18:00:46.788Z,26.08
2022-12-26T18:01:46.981Z,26.11
2022-12-26T18:02:46.831Z,26.09
2022-12-26T18:03:46.633Z,26.08
2022-12-26T18:04:46.605Z,26.08
2022-12-26T18:05:46.516Z,26.09
2022-12-26T18:06:46.469Z,26.08
2022-12-26T18:07:46.422Z,26.07
2022-12-26T18:08:46.374Z,26.11
2022-12-26T18:09:46.336Z,26.09
2022-12-26T18:10:46.267Z,26.11
2022-12-26T18:11:46.204Z,26.09
2022-12-26T18:12:46.154Z,26.08
2022-12-26T18:13:46.108Z,26.13
2022-12-26T18:14:46.050Z,26.11
2022-12-26T18:15:45.989Z,26.08
2022-12-26T18:16:46.016Z,26.12
2022-12-26T18:17:45.890Z,26.12
2022-12-26T18:18:45.865Z,26.12
2022-12-26T18:19:45.782Z,26.13
2022-12-26T18:20:45.741Z,26.09
2022-12-26T18:21:45.683Z,26.16
2022-12-26T18:22:45.653Z,26.11
2022-12-26T18:23:45.583Z,26.12
2022-12-26T18:24:45.589Z,26.12
2022-12-26T18:25:48.183Z,26.13
2022-12-26T18:26:46.456Z,26.15
2022-12-26T18:27:45.373Z,26.12
2022-12-26T18:28:45.320Z,26.16
2022-12-26T18:29:45.282Z,26.17
2022-12-26T18:30:45.227Z,26.17
2022-12-26T18:31:45.222Z,26.19
2022-12-26T18:32:45.121Z,26.16
2022-12-26T18:33:45.053Z,26.17
2022-12-26T18:34:45.019Z,26.15
2022-12-26T18:35:44.957Z,26.17
2022-12-26T18:36:44.919Z,26.23
2022-12-26T18:37:44.864Z,26.16
2022-12-26T18:38:44.794Z,26.19
2022-12-26T18:39:44.765Z,26.20
2022-12-26T18:40:44.700Z,26.17
2022-12-26T18:41:44.645Z,26.19
2022-12-26T18:42:44.608Z,26.21
2022-12-26T18:43:44.549Z,26.24
2022-12-26T18:44:44.499Z,26.30
2022-12-26T18:45:44.546Z,26.25
2022-12-26T18:46:44.400Z,26.26
2022-12-26T18:47:44.335Z,26.21
2022-12-26T18:48:44.284Z,26.24
2022-12-26T18:49:44.228Z,26.23
2022-12-26T18:50:44.191Z,26.24
2022-12-26T18:51:44.125Z,26.23
2022-12-26T18:52:46.527Z,26.25
2022-12-26T18:53:45.011Z,26.24
2022-12-26T18:54:43.973Z,26.26
2022-12-26T18:55:43.925Z,26.18
2022-12-26T18:56:43.867Z,26.21
2022-12-26T18:57:43.821Z,26.27
2022-12-26T18:58:43.768Z,26.25
2022-12-26T18:59:43.728Z,26.26
2022-12-26T19:00:43.716Z,26.23
2022-12-26T19:01:43.709Z,26.17
2022-12-26T19:02:43.612Z,26.20
2022-12-26T19:03:43.558Z,26.19
2022-12-26T19:04:43.465Z,26.16
2022-12-26T19:05:43.407Z,26.17
2022-12-26T19:06:43.358Z,26.17
2022-12-26T19:07:43.304Z,26.15
2022-12-26T19:08:43.243Z,26.13
2022-12-26T19:09:44.157Z,26.19
2022-12-26T19:10:43.133Z,26.13
2022-12-26T19:11:43.059Z,26.10
2022-12-26T19:12:43.005Z,26.13
2022-12-26T19:13:42.951Z,26.17
2022-12-26T19:14:42.898Z,26.15
2022-12-26T19:15:42.836Z,26.12
2022-12-26T19:16:42.866Z,26.12
2022-12-26T19:17:42.745Z,26.15
2022-12-26T19:18:42.718Z,26.13
2022-12-26T19:19:42.641Z,26.13
2022-12-26T19:20:44.427Z,26.15
2022-12-26T19:21:42.574Z,26.12
2022-12-26T19:22:42.498Z,26.10
2022-12-26T19:23:42.445Z,26.15
2022-12-26T19:24:42.406Z,26.16
2022-12-26T19:25:42.343Z,26.16
2022-12-26T19:26:42.283Z,26.15
2022-12-26T19:27:42.232Z,26.09
2022-12-26T19:28:42.209Z,26.13
2022-12-26T19:29:42.151Z,26.16
2022-12-26T19:30:42.094Z,26.12
2022-12-26T19:31:42.083Z,26.12
2022-12-26T19:32:41.980Z,26.13
2022-12-26T19:33:41.940Z,26.13
2022-12-26T19:34:41.893Z,26.13
2022-12-26T19:35:41.843Z,26.19
2022-12-26T19:36:41.785Z,26.15
2022-12-26T19:37:41.716Z,26.17
2022-12-26T19:38:41.656Z,26.16
2022-12-26T19:39:41.608Z,26.12
2022-12-26T19:40:41.567Z,26.15
2022-12-26T19:41:41.500Z,26.16
2022-12-26T19:42:41.445Z,26.14
2022-12-26T19:43:41.413Z,26.16
2022-12-26T19:44:41.324Z,26.17
2022-12-26T19:45:41.316Z,26.15
2022-12-26T19:46:41.224Z,26.15
2022-12-26T19:47:41.166Z,26.15
2022-12-26T19:48:41.123Z,26.17
2022-12-26T19:49:41.059Z,26.17
2022-12-26T19:50:41.020Z,26.16
2022-12-26T19:51:40.955Z,26.16
2022-12-26T19:52:40.893Z,26.19
2022-12-26T19:53:40.862Z,26.17
2022-12-26T19:54:40.824Z,26.17
2022-12-26T19:55:40.748Z,26.19
2022-12-26T19:56:40.683Z,26.19
2022-12-26T19:57:40.659Z,26.14
2022-12-26T19:58:40.575Z,26.17
2022-12-26T19:59:40.525Z,26.19
2022-12-26T20:00:40.457Z,26.13
2022-12-26T20:01:40.495Z,26.20
2022-12-26T20:02:40.488Z,26.19
2022-12-26T20:03:40.294Z,26.17
2022-12-26T20:04:40.264Z,26.15
2022-12-26T20:05:40.188Z,26.17
2022-12-26T20:06:40.138Z,26.19
2022-12-26T21:40:35.178Z,26.28
2022-12-26T21:41:35.129Z,26.25
2022-12-26T21:42:35.078Z,26.28
2022-12-26T21:43:35.023Z,26.32
2022-12-26T21:44:35.013Z,26.28
2022-12-26T21:45:34.941Z,26.25
2022-12-26T21:46:34.946Z,26.30
2022-12-26T21:47:34.832Z,26.31
2022-12-26T21:48:34.782Z,26.30
2022-12-26T21:49:34.730Z,26.25
2022-12-26T21:50:34.678Z,26.27
2022-12-26T21:51:34.624Z,26.30
2022-12-26T21:52:34.602Z,26.31
2022-12-26T21:53:34.545Z,26.30
2022-12-26T21:54:34.473Z,26.23
2022-12-26T21:55:34.425Z,26.31
2022-12-26T21:56:34.364Z,26.28
2022-12-26T21:57:34.323Z,26.25
2022-12-26T21:58:34.274Z,26.30
2022-12-26T21:59:34.226Z,26.30
2022-12-26T22:00:34.171Z,26.31
2022-12-26T22:01:34.190Z,26.29
2022-12-26T22:02:34.261Z,26.28
2022-12-26T22:03:34.072Z,26.31
2022-12-26T22:04:33.960Z,26.31
2022-12-26T22:05:33.920Z,26.26
2022-12-26T22:06:33.879Z,26.31
2022-12-26T22:07:33.793Z,26.26
2022-12-26T22:08:33.758Z,26.32
2022-12-26T22:09:33.694Z,26.30
2022-12-26T22:10:33.660Z,26.30
2022-12-26T22:11:33.589Z,26.28
2022-12-26T22:12:33.539Z,26.29
2022-12-26T22:13:33.494Z,26.29
2022-12-26T22:14:33.484Z,26.35
2022-12-26T22:15:33.447Z,26.30
2022-12-26T22:16:33.352Z,26.35
2022-12-26T22:17:33.288Z,26.32
2022-12-26T22:18:33.265Z,26.29
2022-12-26T22:19:33.220Z,26.28
2022-12-26T22:20:33.140Z,26.30
2022-12-26T22:21:33.105Z,26.34
2022-12-26T22:22:33.094Z,26.28
2022-12-26T22:23:33.008Z,26.32
2022-12-26T22:24:32.934Z,26.29
2022-12-26T22:25:32.895Z,26.29
2022-12-26T22:26:32.834Z,26.30
2022-12-26T22:27:32.800Z,26.32
2022-12-26T22:28:32.735Z,26.28
2022-12-26T22:29:32.695Z,26.35
2022-12-26T22:30:32.644Z,26.32
2022-12-26T22:31:32.622Z,26.30
2022-12-26T22:32:32.532Z,26.36
2022-12-26T22:33:32.498Z,26.34
2022-12-26T22:34:32.431Z,26.34
2022-12-26T22:35:32.381Z,26.32
2022-12-26T22:36:32.370Z,26.32
2022-12-26T22:37:32.288Z,26.35
2022-12-26T22:38:32.257Z,26.30
2022-12-26T22:39:32.207Z,26.34
2022-12-26T22:40:32.140Z,26.35
2022-12-26T22:41:32.071Z,26.32
2022-12-26T22:42:32.018Z,26.34
2022-12-26T22:43:31.991Z,26.32
2022-12-26T22:44:31.915Z,26.36
2022-12-26T22:45:31.876Z,26.29
2022-12-26T22:46:31.853Z,26.38
2022-12-26T22:47:32.729Z,26.32
2022-12-26T22:48:31.717Z,26.34
2022-12-26T22:49:31.677Z,26.30
2022-12-26T22:50:31.607Z,26.36
2022-12-26T22:51:31.574Z,26.36
2022-12-26T22:52:31.504Z,26.39
2022-12-26T22:53:31.539Z,26.35
2022-12-26T22:54:31.412Z,26.39
2022-12-26T22:55:31.362Z,26.32
2022-12-26T22:56:31.353Z,26.41
2022-12-26T22:57:31.293Z,26.35
2022-12-26T22:58:31.229Z,26.34
2022-12-26T23:00:06.220Z,26.38
2022-12-26T23:00:32.103Z,26.29
2022-12-26T23:01:31.296Z,26.32
2022-12-26T23:02:31.124Z,26.35
2022-12-26T23:03:31.048Z,26.34
2022-12-26T23:04:30.896Z,26.41
2022-12-26T23:05:30.851Z,26.39
2022-12-26T23:06:30.803Z,26.34
2022-12-26T23:07:30.756Z,26.35
2022-12-26T23:08:30.699Z,26.36
2022-12-26T23:09:30.669Z,26.39
2022-12-26T23:10:30.599Z,26.34
2022-12-26T23:11:34.700Z,26.34
2022-12-26T23:12:30.489Z,26.39
2022-12-26T23:13:30.451Z,26.39
2022-12-26T23:14:30.415Z,26.32
2022-12-26T23:15:30.329Z,26.36
2022-12-26T23:16:30.293Z,26.34
2022-12-26T23:17:30.226Z,26.36
2022-12-26T23:18:30.171Z,26.38
2022-12-26T23:19:30.129Z,26.39
